sensor_id;sensor_type;location;lat;lon;timestamp;P1;durP1;ratioP1;P2;durP2;ratioP2
8919;SDS011;4495;42.644;23.274;2024-01-30T00:01:50;6.63;;;3.20;;
8919;SDS011;4495;42.644;23.274;2024-01-30T00:04:16;6.47;;;3.35;;
8919;SDS011;4495;42.644;23.274;2024-01-30T00:06:42;8.63;;;3.35;;
8919;SDS011;4495;42.644;23.274;2024-01-30T00:09:08;4.75;;;2.55;;
8919;SDS011;4495;42.644;23.274;2024-01-30T00:11:35;5.60;;;2.95;;
8919;SDS011;4495;42.644;23.274;2024-01-30T00:14:01;6.13;;;2.55;;
8919;SDS011;4495;42.644;23.274;2024-01-30T00:16:26;5.22;;;2.45;;
8919;SDS011;4495;42.644;23.274;2024-01-30T00:18:52;5.88;;;3.38;;
8919;SDS011;4495;42.644;23.274;2024-01-30T00:21:18;8.50;;;3.03;;
8919;SDS011;4495;42.644;23.274;2024-01-30T00:23:43;5.70;;;2.65;;
8919;SDS011;4495;42.644;23.274;2024-01-30T00:26:09;5.82;;;2.17;;
8919;SDS011;4495;42.644;23.274;2024-01-30T00:28:34;8.75;;;2.65;;
8919;SDS011;4495;42.644;23.274;2024-01-30T00:31:00;5.78;;;2.50;;
8919;SDS011;4495;42.644;23.274;2024-01-30T00:33:25;5.85;;;2.28;;
8919;SDS011;4495;42.644;23.274;2024-01-30T00:35:50;7.10;;;2.60;;
8919;SDS011;4495;42.644;23.274;2024-01-30T00:38:16;6.53;;;2.33;;
8919;SDS011;4495;42.644;23.274;2024-01-30T00:40:41;6.80;;;2.97;;
8919;SDS011;4495;42.644;23.274;2024-01-30T00:43:07;9.13;;;4.32;;
8919;SDS011;4495;42.644;23.274;2024-01-30T00:45:32;10.15;;;3.53;;
8919;SDS011;4495;42.644;23.274;2024-01-30T00:47:57;10.30;;;3.38;;
8919;SDS011;4495;42.644;23.274;2024-01-30T00:50:23;7.38;;;3.70;;
8919;SDS011;4495;42.644;23.274;2024-01-30T00:52:48;8.48;;;3.63;;
8919;SDS011;4495;42.644;23.274;2024-01-30T00:55:14;6.50;;;2.65;;
8919;SDS011;4495;42.644;23.274;2024-01-30T00:57:39;4.10;;;2.28;;
8919;SDS011;4495;42.644;23.274;2024-01-30T01:00:05;5.90;;;2.53;;
8919;SDS011;4495;42.644;23.274;2024-01-30T01:02:34;5.75;;;2.80;;
8919;SDS011;4495;42.644;23.274;2024-01-30T01:04:59;5.85;;;2.75;;
8919;SDS011;4495;42.644;23.274;2024-01-30T01:07:25;7.75;;;3.00;;
8919;SDS011;4495;42.644;23.274;2024-01-30T01:09:50;7.00;;;2.67;;
8919;SDS011;4495;42.644;23.274;2024-01-30T01:12:15;4.68;;;2.00;;
8919;SDS011;4495;42.644;23.274;2024-01-30T01:14:41;5.95;;;1.92;;
8919;SDS011;4495;42.644;23.274;2024-01-30T01:17:07;5.07;;;2.20;;
8919;SDS011;4495;42.644;23.274;2024-01-30T01:19:32;6.07;;;2.38;;
8919;SDS011;4495;42.644;23.274;2024-01-30T01:21:58;5.15;;;3.15;;
8919;SDS011;4495;42.644;23.274;2024-01-30T01:24:23;4.55;;;2.50;;
8919;SDS011;4495;42.644;23.274;2024-01-30T01:26:49;6.32;;;3.08;;
8919;SDS011;4495;42.644;23.274;2024-01-30T01:29:14;6.45;;;3.08;;
8919;SDS011;4495;42.644;23.274;2024-01-30T01:31:40;6.28;;;2.58;;
8919;SDS011;4495;42.644;23.274;2024-01-30T01:34:12;5.53;;;2.38;;
8919;SDS011;4495;42.644;23.274;2024-01-30T01:36:38;8.05;;;2.70;;
8919;SDS011;4495;42.644;23.274;2024-01-30T01:39:04;4.50;;;2.15;;
8919;SDS011;4495;42.644;23.274;2024-01-30T01:41:30;6.72;;;2.72;;
8919;SDS011;4495;42.644;23.274;2024-01-30T01:43:57;6.70;;;2.88;;
8919;SDS011;4495;42.644;23.274;2024-01-30T01:46:22;4.68;;;2.97;;
8919;SDS011;4495;42.644;23.274;2024-01-30T01:48:48;7.47;;;2.53;;
8919;SDS011;4495;42.644;23.274;2024-01-30T01:51:14;4.93;;;2.28;;
8919;SDS011;4495;42.644;23.274;2024-01-30T01:53:40;5.07;;;2.47;;
8919;SDS011;4495;42.644;23.274;2024-01-30T01:56:06;6.88;;;2.40;;
8919;SDS011;4495;42.644;23.274;2024-01-30T01:58:32;4.72;;;2.75;;
8919;SDS011;4495;42.644;23.274;2024-01-30T02:00:57;6.25;;;2.45;;
8919;SDS011;4495;42.644;23.274;2024-01-30T02:03:24;8.57;;;2.85;;
8919;SDS011;4495;42.644;23.274;2024-01-30T02:05:52;4.63;;;2.00;;
8919;SDS011;4495;42.644;23.274;2024-01-30T02:08:19;4.68;;;2.00;;
8919;SDS011;4495;42.644;23.274;2024-01-30T02:10:45;4.40;;;2.42;;
8919;SDS011;4495;42.644;23.274;2024-01-30T02:13:10;5.45;;;2.40;;
8919;SDS011;4495;42.644;23.274;2024-01-30T02:15:36;3.10;;;1.60;;
8919;SDS011;4495;42.644;23.274;2024-01-30T02:18:01;4.47;;;1.52;;
8919;SDS011;4495;42.644;23.274;2024-01-30T02:20:27;6.65;;;2.45;;
8919;SDS011;4495;42.644;23.274;2024-01-30T02:22:55;3.47;;;1.38;;
8919;SDS011;4495;42.644;23.274;2024-01-30T02:25:33;3.97;;;1.90;;
8919;SDS011;4495;42.644;23.274;2024-01-30T02:28:00;5.75;;;1.73;;
8919;SDS011;4495;42.644;23.274;2024-01-30T02:30:25;4.15;;;1.85;;
8919;SDS011;4495;42.644;23.274;2024-01-30T02:32:51;4.10;;;1.98;;
8919;SDS011;4495;42.644;23.274;2024-01-30T02:35:16;4.30;;;1.77;;
8919;SDS011;4495;42.644;23.274;2024-01-30T02:37:42;5.97;;;2.53;;
8919;SDS011;4495;42.644;23.274;2024-01-30T02:40:07;3.58;;;1.98;;
8919;SDS011;4495;42.644;23.274;2024-01-30T02:42:33;3.05;;;1.77;;
8919;SDS011;4495;42.644;23.274;2024-01-30T02:44:58;4.30;;;1.83;;
8919;SDS011;4495;42.644;23.274;2024-01-30T02:47:23;4.47;;;1.83;;
8919;SDS011;4495;42.644;23.274;2024-01-30T02:49:49;3.90;;;1.65;;
8919;SDS011;4495;42.644;23.274;2024-01-30T02:52:14;4.75;;;1.85;;
8919;SDS011;4495;42.644;23.274;2024-01-30T02:54:39;4.85;;;2.13;;
8919;SDS011;4495;42.644;23.274;2024-01-30T02:57:05;6.78;;;2.80;;
8919;SDS011;4495;42.644;23.274;2024-01-30T02:59:30;6.68;;;2.17;;
8919;SDS011;4495;42.644;23.274;2024-01-30T03:01:58;6.65;;;2.38;;
8919;SDS011;4495;42.644;23.274;2024-01-30T03:04:24;5.20;;;2.10;;
8919;SDS011;4495;42.644;23.274;2024-01-30T03:06:49;3.33;;;1.42;;
8919;SDS011;4495;42.644;23.274;2024-01-30T03:09:17;5.38;;;2.00;;
8919;SDS011;4495;42.644;23.274;2024-01-30T03:11:43;3.60;;;1.95;;
8919;SDS011;4495;42.644;23.274;2024-01-30T03:14:08;5.75;;;2.20;;
8919;SDS011;4495;42.644;23.274;2024-01-30T03:19:01;3.40;;;1.70;;
8919;SDS011;4495;42.644;23.274;2024-01-30T03:21:28;5.90;;;2.17;;
8919;SDS011;4495;42.644;23.274;2024-01-30T03:23:54;8.68;;;2.60;;
8919;SDS011;4495;42.644;23.274;2024-01-30T03:26:19;6.57;;;2.80;;
8919;SDS011;4495;42.644;23.274;2024-01-30T03:28:44;4.10;;;2.45;;
8919;SDS011;4495;42.644;23.274;2024-01-30T03:31:10;4.82;;;2.45;;
8919;SDS011;4495;42.644;23.274;2024-01-30T03:33:36;4.03;;;2.15;;
8919;SDS011;4495;42.644;23.274;2024-01-30T03:36:04;4.50;;;2.15;;
8919;SDS011;4495;42.644;23.274;2024-01-30T03:38:30;4.53;;;2.38;;
8919;SDS011;4495;42.644;23.274;2024-01-30T03:43:23;7.97;;;2.60;;
8919;SDS011;4495;42.644;23.274;2024-01-30T03:45:48;3.67;;;1.88;;
8919;SDS011;4495;42.644;23.274;2024-01-30T03:48:14;5.15;;;2.35;;
8919;SDS011;4495;42.644;23.274;2024-01-30T03:50:39;4.97;;;1.90;;
8919;SDS011;4495;42.644;23.274;2024-01-30T03:53:05;3.35;;;1.75;;
8919;SDS011;4495;42.644;23.274;2024-01-30T03:55:30;2.35;;;1.77;;
8919;SDS011;4495;42.644;23.274;2024-01-30T03:57:55;4.45;;;1.88;;
8919;SDS011;4495;42.644;23.274;2024-01-30T04:00:21;5.43;;;1.60;;
8919;SDS011;4495;42.644;23.274;2024-01-30T04:02:46;2.65;;;1.50;;
8919;SDS011;4495;42.644;23.274;2024-01-30T04:05:11;3.78;;;1.90;;
8919;SDS011;4495;42.644;23.274;2024-01-30T04:07:37;4.10;;;1.55;;
8919;SDS011;4495;42.644;23.274;2024-01-30T04:10:02;5.13;;;1.75;;
8919;SDS011;4495;42.644;23.274;2024-01-30T04:12:30;6.47;;;2.20;;
8919;SDS011;4495;42.644;23.274;2024-01-30T04:14:56;4.50;;;2.10;;
8919;SDS011;4495;42.644;23.274;2024-01-30T04:17:21;4.20;;;1.60;;
8919;SDS011;4495;42.644;23.274;2024-01-30T04:19:47;5.15;;;1.88;;
8919;SDS011;4495;42.644;23.274;2024-01-30T04:22:12;3.33;;;2.03;;
8919;SDS011;4495;42.644;23.274;2024-01-30T04:24:38;5.82;;;2.10;;
8919;SDS011;4495;42.644;23.274;2024-01-30T04:27:03;5.50;;;2.65;;
8919;SDS011;4495;42.644;23.274;2024-01-30T04:29:29;5.10;;;3.00;;
8919;SDS011;4495;42.644;23.274;2024-01-30T04:31:54;4.50;;;2.70;;
8919;SDS011;4495;42.644;23.274;2024-01-30T04:34:20;5.32;;;3.50;;
8919;SDS011;4495;42.644;23.274;2024-01-30T04:36:45;9.02;;;3.17;;
8919;SDS011;4495;42.644;23.274;2024-01-30T04:39:11;4.65;;;2.75;;
8919;SDS011;4495;42.644;23.274;2024-01-30T04:41:37;5.63;;;2.75;;
8919;SDS011;4495;42.644;23.274;2024-01-30T04:44:03;4.65;;;2.40;;
8919;SDS011;4495;42.644;23.274;2024-01-30T04:46:28;6.20;;;2.80;;
8919;SDS011;4495;42.644;23.274;2024-01-30T04:48:54;5.05;;;2.30;;
8919;SDS011;4495;42.644;23.274;2024-01-30T04:51:19;10.32;;;2.55;;
8919;SDS011;4495;42.644;23.274;2024-01-30T04:53:45;6.03;;;2.08;;
8919;SDS011;4495;42.644;23.274;2024-01-30T04:56:10;5.10;;;2.50;;
8919;SDS011;4495;42.644;23.274;2024-01-30T04:58:36;4.65;;;2.63;;
8919;SDS011;4495;42.644;23.274;2024-01-30T05:01:01;6.20;;;2.35;;
8919;SDS011;4495;42.644;23.274;2024-01-30T05:03:27;6.03;;;2.00;;
8919;SDS011;4495;42.644;23.274;2024-01-30T05:05:53;6.00;;;2.45;;
8919;SDS011;4495;42.644;23.274;2024-01-30T05:08:18;7.72;;;3.60;;
8919;SDS011;4495;42.644;23.274;2024-01-30T05:10:43;6.43;;;2.90;;
8919;SDS011;4495;42.644;23.274;2024-01-30T05:13:09;7.68;;;3.20;;
8919;SDS011;4495;42.644;23.274;2024-01-30T05:15:35;7.25;;;3.47;;
8919;SDS011;4495;42.644;23.274;2024-01-30T05:18:00;6.47;;;2.60;;
8919;SDS011;4495;42.644;23.274;2024-01-30T05:20:25;5.15;;;2.13;;
8919;SDS011;4495;42.644;23.274;2024-01-30T05:22:53;6.70;;;2.35;;
8919;SDS011;4495;42.644;23.274;2024-01-30T05:25:19;6.00;;;2.13;;
8919;SDS011;4495;42.644;23.274;2024-01-30T05:27:44;4.55;;;1.70;;
8919;SDS011;4495;42.644;23.274;2024-01-30T05:30:10;2.80;;;1.15;;
8919;SDS011;4495;42.644;23.274;2024-01-30T05:32:35;3.60;;;1.63;;
8919;SDS011;4495;42.644;23.274;2024-01-30T05:35:01;4.90;;;1.98;;
8919;SDS011;4495;42.644;23.274;2024-01-30T05:37:27;4.00;;;1.73;;
8919;SDS011;4495;42.644;23.274;2024-01-30T05:39:52;4.80;;;1.55;;
8919;SDS011;4495;42.644;23.274;2024-01-30T05:42:18;5.85;;;2.40;;
8919;SDS011;4495;42.644;23.274;2024-01-30T05:44:43;7.40;;;3.45;;
8919;SDS011;4495;42.644;23.274;2024-01-30T05:47:08;6.20;;;2.70;;
8919;SDS011;4495;42.644;23.274;2024-01-30T05:49:34;6.55;;;2.80;;
8919;SDS011;4495;42.644;23.274;2024-01-30T05:52:03;5.95;;;2.80;;
8919;SDS011;4495;42.644;23.274;2024-01-30T05:54:28;4.78;;;2.20;;
8919;SDS011;4495;42.644;23.274;2024-01-30T05:56:54;3.20;;;1.70;;
8919;SDS011;4495;42.644;23.274;2024-01-30T05:59:19;5.38;;;2.55;;
8919;SDS011;4495;42.644;23.274;2024-01-30T06:01:45;5.70;;;2.35;;
8919;SDS011;4495;42.644;23.274;2024-01-30T06:04:14;5.68;;;2.58;;
8919;SDS011;4495;42.644;23.274;2024-01-30T06:06:40;11.65;;;4.28;;
8919;SDS011;4495;42.644;23.274;2024-01-30T06:09:06;10.25;;;4.05;;
8919;SDS011;4495;42.644;23.274;2024-01-30T06:11:34;7.55;;;3.28;;
8919;SDS011;4495;42.644;23.274;2024-01-30T06:13:59;7.65;;;2.88;;
8919;SDS011;4495;42.644;23.274;2024-01-30T06:16:25;6.85;;;2.65;;
8919;SDS011;4495;42.644;23.274;2024-01-30T06:18:54;5.47;;;2.03;;
8919;SDS011;4495;42.644;23.274;2024-01-30T06:21:20;5.38;;;2.70;;
8919;SDS011;4495;42.644;23.274;2024-01-30T06:23:45;5.25;;;2.40;;
8919;SDS011;4495;42.644;23.274;2024-01-30T06:26:11;5.65;;;2.35;;
8919;SDS011;4495;42.644;23.274;2024-01-30T06:28:36;5.85;;;2.80;;
8919;SDS011;4495;42.644;23.274;2024-01-30T06:31:02;6.90;;;3.55;;
8919;SDS011;4495;42.644;23.274;2024-01-30T06:33:27;8.63;;;3.33;;
8919;SDS011;4495;42.644;23.274;2024-01-30T06:35:52;6.63;;;2.97;;
8919;SDS011;4495;42.644;23.274;2024-01-30T06:38:18;7.85;;;3.80;;
8919;SDS011;4495;42.644;23.274;2024-01-30T06:40:43;6.20;;;3.00;;
8919;SDS011;4495;42.644;23.274;2024-01-30T06:43:09;4.78;;;2.80;;
8919;SDS011;4495;42.644;23.274;2024-01-30T06:45:34;7.70;;;2.95;;
8919;SDS011;4495;42.644;23.274;2024-01-30T06:48:00;11.73;;;3.95;;
8919;SDS011;4495;42.644;23.274;2024-01-30T06:50:25;9.25;;;4.13;;
8919;SDS011;4495;42.644;23.274;2024-01-30T06:52:51;13.43;;;3.33;;
8919;SDS011;4495;42.644;23.274;2024-01-30T06:55:17;10.68;;;4.55;;
8919;SDS011;4495;42.644;23.274;2024-01-30T06:57:43;6.38;;;3.15;;
8919;SDS011;4495;42.644;23.274;2024-01-30T07:00:08;8.32;;;3.15;;
8919;SDS011;4495;42.644;23.274;2024-01-30T07:02:34;6.38;;;2.25;;
8919;SDS011;4495;42.644;23.274;2024-01-30T07:05:00;3.28;;;1.70;;
8919;SDS011;4495;42.644;23.274;2024-01-30T07:07:25;2.83;;;1.50;;
8919;SDS011;4495;42.644;23.274;2024-01-30T07:09:51;5.15;;;1.00;;
8919;SDS011;4495;42.644;23.274;2024-01-30T07:12:21;4.28;;;2.05;;
8919;SDS011;4495;42.644;23.274;2024-01-30T07:14:52;2.08;;;0.95;;
8919;SDS011;4495;42.644;23.274;2024-01-30T07:17:18;3.55;;;1.33;;
8919;SDS011;4495;42.644;23.274;2024-01-30T07:19:43;5.05;;;2.13;;
8919;SDS011;4495;42.644;23.274;2024-01-30T07:22:09;4.82;;;1.85;;
8919;SDS011;4495;42.644;23.274;2024-01-30T07:24:34;1.52;;;1.00;;
8919;SDS011;4495;42.644;23.274;2024-01-30T07:26:59;5.00;;;1.58;;
8919;SDS011;4495;42.644;23.274;2024-01-30T07:29:25;5.03;;;1.20;;
8919;SDS011;4495;42.644;23.274;2024-01-30T07:31:50;3.03;;;1.23;;
8919;SDS011;4495;42.644;23.274;2024-01-30T07:34:16;3.70;;;1.17;;
8919;SDS011;4495;42.644;23.274;2024-01-30T07:36:41;1.63;;;1.10;;
8919;SDS011;4495;42.644;23.274;2024-01-30T07:39:07;3.05;;;0.88;;
8919;SDS011;4495;42.644;23.274;2024-01-30T07:41:32;1.45;;;1.05;;
8919;SDS011;4495;42.644;23.274;2024-01-30T07:43:58;2.10;;;0.85;;
8919;SDS011;4495;42.644;23.274;2024-01-30T07:46:23;2.47;;;0.98;;
8919;SDS011;4495;42.644;23.274;2024-01-30T07:48:48;2.40;;;1.30;;
8919;SDS011;4495;42.644;23.274;2024-01-30T07:51:14;3.88;;;1.10;;
8919;SDS011;4495;42.644;23.274;2024-01-30T07:53:42;2.65;;;1.48;;
8919;SDS011;4495;42.644;23.274;2024-01-30T07:56:08;2.47;;;1.50;;
8919;SDS011;4495;42.644;23.274;2024-01-30T07:58:33;3.03;;;1.10;;
8919;SDS011;4495;42.644;23.274;2024-01-30T08:00:59;1.77;;;1.05;;
8919;SDS011;4495;42.644;23.274;2024-01-30T08:03:25;2.33;;;1.20;;
8919;SDS011;4495;42.644;23.274;2024-01-30T08:05:50;3.58;;;1.30;;
8919;SDS011;4495;42.644;23.274;2024-01-30T08:08:16;3.03;;;1.52;;
8919;SDS011;4495;42.644;23.274;2024-01-30T08:10:41;3.78;;;1.20;;
8919;SDS011;4495;42.644;23.274;2024-01-30T08:13:07;4.30;;;1.63;;
8919;SDS011;4495;42.644;23.274;2024-01-30T08:15:33;3.72;;;1.67;;
8919;SDS011;4495;42.644;23.274;2024-01-30T08:17:59;2.80;;;1.40;;
8919;SDS011;4495;42.644;23.274;2024-01-30T08:20:24;2.05;;;1.30;;
8919;SDS011;4495;42.644;23.274;2024-01-30T08:22:50;3.00;;;1.42;;
8919;SDS011;4495;42.644;23.274;2024-01-30T08:25:16;2.80;;;1.35;;
8919;SDS011;4495;42.644;23.274;2024-01-30T08:27:41;1.52;;;1.00;;
8919;SDS011;4495;42.644;23.274;2024-01-30T08:30:07;2.00;;;1.23;;
8919;SDS011;4495;42.644;23.274;2024-01-30T08:32:32;2.17;;;1.25;;
8919;SDS011;4495;42.644;23.274;2024-01-30T08:34:59;2.60;;;0.90;;
8919;SDS011;4495;42.644;23.274;2024-01-30T08:37:24;2.08;;;0.98;;
8919;SDS011;4495;42.644;23.274;2024-01-30T08:39:50;1.50;;;1.08;;
8919;SDS011;4495;42.644;23.274;2024-01-30T08:42:15;1.60;;;1.15;;
8919;SDS011;4495;42.644;23.274;2024-01-30T08:44:43;3.67;;;1.90;;
8919;SDS011;4495;42.644;23.274;2024-01-30T08:47:09;2.72;;;1.25;;
8919;SDS011;4495;42.644;23.274;2024-01-30T08:49:34;3.60;;;1.50;;
8919;SDS011;4495;42.644;23.274;2024-01-30T08:51:59;5.10;;;1.95;;
8919;SDS011;4495;42.644;23.274;2024-01-30T08:54:25;4.22;;;1.70;;
8919;SDS011;4495;42.644;23.274;2024-01-30T08:56:50;2.22;;;1.20;;
8919;SDS011;4495;42.644;23.274;2024-01-30T08:59:18;2.78;;;1.48;;
8919;SDS011;4495;42.644;23.274;2024-01-30T09:01:43;2.67;;;1.38;;
8919;SDS011;4495;42.644;23.274;2024-01-30T09:04:09;4.03;;;1.80;;
8919;SDS011;4495;42.644;23.274;2024-01-30T09:06:34;4.38;;;1.75;;
8919;SDS011;4495;42.644;23.274;2024-01-30T09:09:00;2.63;;;1.48;;
8919;SDS011;4495;42.644;23.274;2024-01-30T09:11:26;3.38;;;1.50;;
8919;SDS011;4495;42.644;23.274;2024-01-30T09:13:52;1.52;;;0.93;;
8919;SDS011;4495;42.644;23.274;2024-01-30T09:16:17;2.83;;;1.55;;
8919;SDS011;4495;42.644;23.274;2024-01-30T09:18:42;5.38;;;2.47;;
8919;SDS011;4495;42.644;23.274;2024-01-30T09:21:08;4.47;;;1.83;;
8919;SDS011;4495;42.644;23.274;2024-01-30T09:23:33;4.68;;;2.05;;
8919;SDS011;4495;42.644;23.274;2024-01-30T09:25:59;2.33;;;1.70;;
8919;SDS011;4495;42.644;23.274;2024-01-30T09:28:24;5.18;;;1.70;;
8919;SDS011;4495;42.644;23.274;2024-01-30T09:30:50;4.72;;;2.15;;
8919;SDS011;4495;42.644;23.274;2024-01-30T09:33:15;4.47;;;2.15;;
8919;SDS011;4495;42.644;23.274;2024-01-30T09:35:41;4.55;;;2.20;;
8919;SDS011;4495;42.644;23.274;2024-01-30T09:38:07;3.95;;;1.73;;
8919;SDS011;4495;42.644;23.274;2024-01-30T09:40:33;5.28;;;2.50;;
8919;SDS011;4495;42.644;23.274;2024-01-30T09:42:58;4.53;;;2.15;;
8919;SDS011;4495;42.644;23.274;2024-01-30T09:45:27;4.07;;;2.03;;
8919;SDS011;4495;42.644;23.274;2024-01-30T09:47:52;6.15;;;2.00;;
8919;SDS011;4495;42.644;23.274;2024-01-30T09:50:18;4.30;;;2.17;;
8919;SDS011;4495;42.644;23.274;2024-01-30T09:52:45;4.60;;;2.08;;
8919;SDS011;4495;42.644;23.274;2024-01-30T09:55:11;4.90;;;2.47;;
8919;SDS011;4495;42.644;23.274;2024-01-30T09:57:37;10.35;;;2.72;;
8919;SDS011;4495;42.644;23.274;2024-01-30T10:00:06;4.43;;;2.05;;
8919;SDS011;4495;42.644;23.274;2024-01-30T10:02:34;4.15;;;2.17;;
8919;SDS011;4495;42.644;23.274;2024-01-30T10:05:00;4.90;;;2.53;;
8919;SDS011;4495;42.644;23.274;2024-01-30T10:07:26;4.70;;;2.30;;
8919;SDS011;4495;42.644;23.274;2024-01-30T10:09:52;5.63;;;2.10;;
8919;SDS011;4495;42.644;23.274;2024-01-30T10:12:18;4.68;;;2.00;;
8919;SDS011;4495;42.644;23.274;2024-01-30T10:14:44;5.25;;;2.15;;
8919;SDS011;4495;42.644;23.274;2024-01-30T10:17:09;1.63;;;0.93;;
8919;SDS011;4495;42.644;23.274;2024-01-30T10:19:37;3.15;;;1.80;;
8919;SDS011;4495;42.644;23.274;2024-01-30T10:22:04;5.35;;;1.80;;
8919;SDS011;4495;42.644;23.274;2024-01-30T10:24:29;3.22;;;1.70;;
8919;SDS011;4495;42.644;23.274;2024-01-30T10:26:55;3.97;;;2.00;;
8919;SDS011;4495;42.644;23.274;2024-01-30T10:29:21;6.18;;;2.00;;
8919;SDS011;4495;42.644;23.274;2024-01-30T10:31:57;6.30;;;2.72;;
8919;SDS011;4495;42.644;23.274;2024-01-30T10:34:23;5.80;;;2.53;;
8919;SDS011;4495;42.644;23.274;2024-01-30T10:36:49;4.20;;;2.35;;
8919;SDS011;4495;42.644;23.274;2024-01-30T10:39:15;3.90;;;1.85;;
8919;SDS011;4495;42.644;23.274;2024-01-30T10:41:45;5.22;;;1.90;;
8919;SDS011;4495;42.644;23.274;2024-01-30T10:44:13;8.30;;;2.92;;
8919;SDS011;4495;42.644;23.274;2024-01-30T10:46:46;5.78;;;2.25;;
8919;SDS011;4495;42.644;23.274;2024-01-30T10:49:17;6.47;;;2.85;;
8919;SDS011;4495;42.644;23.274;2024-01-30T10:51:43;7.97;;;2.72;;
8919;SDS011;4495;42.644;23.274;2024-01-30T10:54:09;8.10;;;3.03;;
8919;SDS011;4495;42.644;23.274;2024-01-30T10:56:36;4.85;;;2.17;;
8919;SDS011;4495;42.644;23.274;2024-01-30T10:59:01;3.75;;;2.03;;
8919;SDS011;4495;42.644;23.274;2024-01-30T11:06:25;6.38;;;2.17;;
8919;SDS011;4495;42.644;23.274;2024-01-30T11:09:00;3.50;;;2.00;;
8919;SDS011;4495;42.644;23.274;2024-01-30T11:11:28;5.57;;;2.42;;
8919;SDS011;4495;42.644;23.274;2024-01-30T11:13:54;6.90;;;2.72;;
8919;SDS011;4495;42.644;23.274;2024-01-30T11:16:19;4.35;;;2.20;;
8919;SDS011;4495;42.644;23.274;2024-01-30T11:18:49;3.35;;;1.85;;
8919;SDS011;4495;42.644;23.274;2024-01-30T11:21:16;4.22;;;2.20;;
8919;SDS011;4495;42.644;23.274;2024-01-30T11:23:41;4.78;;;2.20;;
8919;SDS011;4495;42.644;23.274;2024-01-30T11:26:10;3.42;;;1.65;;
8919;SDS011;4495;42.644;23.274;2024-01-30T11:28:37;5.55;;;2.17;;
8919;SDS011;4495;42.644;23.274;2024-01-30T11:31:06;4.55;;;2.10;;
8919;SDS011;4495;42.644;23.274;2024-01-30T11:33:33;5.38;;;2.60;;
8919;SDS011;4495;42.644;23.274;2024-01-30T11:35:59;5.45;;;2.17;;
8919;SDS011;4495;42.644;23.274;2024-01-30T11:38:26;7.13;;;2.72;;
8919;SDS011;4495;42.644;23.274;2024-01-30T11:40:55;4.35;;;2.20;;
8919;SDS011;4495;42.644;23.274;2024-01-30T11:43:21;4.80;;;2.40;;
8919;SDS011;4495;42.644;23.274;2024-01-30T11:45:47;3.83;;;2.45;;
8919;SDS011;4495;42.644;23.274;2024-01-30T11:48:13;5.00;;;2.15;;
8919;SDS011;4495;42.644;23.274;2024-01-30T11:50:39;3.42;;;1.95;;
8919;SDS011;4495;42.644;23.274;2024-01-30T11:53:06;4.18;;;1.52;;
8919;SDS011;4495;42.644;23.274;2024-01-30T11:55:31;5.45;;;2.00;;
8919;SDS011;4495;42.644;23.274;2024-01-30T11:57:57;4.75;;;2.25;;
8919;SDS011;4495;42.644;23.274;2024-01-30T12:00:23;4.30;;;1.98;;
8919;SDS011;4495;42.644;23.274;2024-01-30T12:02:52;3.97;;;2.00;;
8919;SDS011;4495;42.644;23.274;2024-01-30T12:05:24;3.92;;;2.00;;
8919;SDS011;4495;42.644;23.274;2024-01-30T12:07:50;5.82;;;2.20;;
8919;SDS011;4495;42.644;23.274;2024-01-30T12:10:16;6.18;;;2.38;;
8919;SDS011;4495;42.644;23.274;2024-01-30T12:12:46;4.38;;;1.95;;
8919;SDS011;4495;42.644;23.274;2024-01-30T12:15:14;3.05;;;1.92;;
8919;SDS011;4495;42.644;23.274;2024-01-30T12:17:39;4.65;;;2.13;;
8919;SDS011;4495;42.644;23.274;2024-01-30T12:20:06;4.30;;;2.22;;
8919;SDS011;4495;42.644;23.274;2024-01-30T12:22:41;4.13;;;1.63;;
8919;SDS011;4495;42.644;23.274;2024-01-30T12:25:11;4.85;;;2.20;;
8919;SDS011;4495;42.644;23.274;2024-01-30T12:27:44;4.38;;;2.38;;
8919;SDS011;4495;42.644;23.274;2024-01-30T12:30:12;3.53;;;1.58;;
8919;SDS011;4495;42.644;23.274;2024-01-30T12:32:39;4.47;;;2.22;;
8919;SDS011;4495;42.644;23.274;2024-01-30T12:35:07;3.78;;;2.30;;
8919;SDS011;4495;42.644;23.274;2024-01-30T12:37:33;4.93;;;2.25;;
8919;SDS011;4495;42.644;23.274;2024-01-30T12:39:59;4.03;;;2.30;;
8919;SDS011;4495;42.644;23.274;2024-01-30T12:42:24;3.95;;;1.90;;
8919;SDS011;4495;42.644;23.274;2024-01-30T12:44:53;5.47;;;3.00;;
8919;SDS011;4495;42.644;23.274;2024-01-30T12:47:21;4.45;;;2.15;;
8919;SDS011;4495;42.644;23.274;2024-01-30T12:49:46;4.93;;;2.28;;
8919;SDS011;4495;42.644;23.274;2024-01-30T12:52:13;5.70;;;2.70;;
8919;SDS011;4495;42.644;23.274;2024-01-30T12:54:39;4.70;;;2.30;;
8919;SDS011;4495;42.644;23.274;2024-01-30T12:57:05;6.88;;;2.40;;
8919;SDS011;4495;42.644;23.274;2024-01-30T12:59:31;5.72;;;2.58;;
8919;SDS011;4495;42.644;23.274;2024-01-30T13:01:56;4.15;;;2.38;;
8919;SDS011;4495;42.644;23.274;2024-01-30T13:04:23;4.05;;;2.30;;
8919;SDS011;4495;42.644;23.274;2024-01-30T13:06:49;5.68;;;2.55;;
8919;SDS011;4495;42.644;23.274;2024-01-30T13:09:14;4.65;;;2.50;;
8919;SDS011;4495;42.644;23.274;2024-01-30T13:11:39;5.07;;;2.65;;
8919;SDS011;4495;42.644;23.274;2024-01-30T13:14:05;4.18;;;2.17;;
8919;SDS011;4495;42.644;23.274;2024-01-30T13:16:30;4.72;;;2.20;;
8919;SDS011;4495;42.644;23.274;2024-01-30T13:18:56;5.30;;;2.38;;
8919;SDS011;4495;42.644;23.274;2024-01-30T13:21:21;4.60;;;2.35;;
8919;SDS011;4495;42.644;23.274;2024-01-30T13:23:46;4.32;;;2.67;;
8919;SDS011;4495;42.644;23.274;2024-01-30T13:26:12;7.03;;;2.60;;
8919;SDS011;4495;42.644;23.274;2024-01-30T13:28:37;4.75;;;2.50;;
8919;SDS011;4495;42.644;23.274;2024-01-30T13:31:03;3.55;;;2.05;;
8919;SDS011;4495;42.644;23.274;2024-01-30T13:33:30;3.72;;;2.13;;
8919;SDS011;4495;42.644;23.274;2024-01-30T13:35:55;6.72;;;2.00;;
8919;SDS011;4495;42.644;23.274;2024-01-30T13:38:21;3.05;;;1.77;;
8919;SDS011;4495;42.644;23.274;2024-01-30T13:40:46;5.90;;;2.83;;
8919;SDS011;4495;42.644;23.274;2024-01-30T13:43:11;4.50;;;2.20;;
8919;SDS011;4495;42.644;23.274;2024-01-30T13:45:37;4.60;;;2.13;;
8919;SDS011;4495;42.644;23.274;2024-01-30T13:48:02;4.60;;;1.98;;
8919;SDS011;4495;42.644;23.274;2024-01-30T13:50:28;4.30;;;2.22;;
8919;SDS011;4495;42.644;23.274;2024-01-30T13:52:58;4.10;;;2.30;;
8919;SDS011;4495;42.644;23.274;2024-01-30T13:55:23;3.83;;;2.17;;
8919;SDS011;4495;42.644;23.274;2024-01-30T13:57:48;5.05;;;2.35;;
8919;SDS011;4495;42.644;23.274;2024-01-30T14:00:14;5.05;;;2.08;;
8919;SDS011;4495;42.644;23.274;2024-01-30T14:02:41;4.90;;;2.38;;
8919;SDS011;4495;42.644;23.274;2024-01-30T14:05:06;7.22;;;2.55;;
8919;SDS011;4495;42.644;23.274;2024-01-30T14:07:32;9.90;;;3.78;;
8919;SDS011;4495;42.644;23.274;2024-01-30T14:09:58;8.18;;;2.80;;
8919;SDS011;4495;42.644;23.274;2024-01-30T14:12:23;4.22;;;2.63;;
8919;SDS011;4495;42.644;23.274;2024-01-30T14:14:48;8.27;;;3.17;;
8919;SDS011;4495;42.644;23.274;2024-01-30T14:17:14;6.10;;;2.88;;
8919;SDS011;4495;42.644;23.274;2024-01-30T14:19:39;5.75;;;2.83;;
8919;SDS011;4495;42.644;23.274;2024-01-30T14:22:05;3.70;;;2.35;;
8919;SDS011;4495;42.644;23.274;2024-01-30T14:24:31;3.00;;;1.85;;
8919;SDS011;4495;42.644;23.274;2024-01-30T14:26:56;5.32;;;2.45;;
8919;SDS011;4495;42.644;23.274;2024-01-30T14:29:21;5.45;;;2.60;;
8919;SDS011;4495;42.644;23.274;2024-01-30T14:31:47;6.80;;;2.95;;
8919;SDS011;4495;42.644;23.274;2024-01-30T14:34:12;6.13;;;2.53;;
8919;SDS011;4495;42.644;23.274;2024-01-30T14:36:38;7.28;;;3.60;;
8919;SDS011;4495;42.644;23.274;2024-01-30T14:39:03;7.50;;;3.30;;
8919;SDS011;4495;42.644;23.274;2024-01-30T14:41:29;9.23;;;4.63;;
8919;SDS011;4495;42.644;23.274;2024-01-30T14:43:55;8.15;;;4.35;;
8919;SDS011;4495;42.644;23.274;2024-01-30T14:46:20;7.45;;;4.40;;
8919;SDS011;4495;42.644;23.274;2024-01-30T14:48:47;8.02;;;3.40;;
8919;SDS011;4495;42.644;23.274;2024-01-30T14:51:12;7.38;;;3.25;;
8919;SDS011;4495;42.644;23.274;2024-01-30T14:53:38;8.95;;;3.72;;
8919;SDS011;4495;42.644;23.274;2024-01-30T14:56:04;16.88;;;5.90;;
8919;SDS011;4495;42.644;23.274;2024-01-30T14:58:30;13.20;;;5.47;;
8919;SDS011;4495;42.644;23.274;2024-01-30T15:00:56;9.50;;;5.50;;
8919;SDS011;4495;42.644;23.274;2024-01-30T15:03:21;8.10;;;3.40;;